sensor_id;sensor_type;location;lat;lon;timestamp;temperature;humidity
18717;DHT22;9487;50.892;6.906;2023-05-19T00:01:56;12.30;53.90
18717;DHT22;9487;50.892;6.906;2023-05-19T00:04:25;12.30;54.10
18717;DHT22;9487;50.892;6.906;2023-05-19T00:06:54;12.20;56.70
18717;DHT22;9487;50.892;6.906;2023-05-19T00:09:23;12.10;59.00
18717;DHT22;9487;50.892;6.906;2023-05-19T00:11:50;12.00;63.20
18717;DHT22;9487;50.892;6.906;2023-05-19T00:14:18;11.80;68.10
18717;DHT22;9487;50.892;6.906;2023-05-19T00:16:49;11.70;73.70
18717;DHT22;9487;50.892;6.906;2023-05-19T00:19:16;11.60;77.00
18717;DHT22;9487;50.892;6.906;2023-05-19T00:21:46;11.50;80.70
18717;DHT22;9487;50.892;6.906;2023-05-19T00:24:16;11.40;81.90
18717;DHT22;9487;50.892;6.906;2023-05-19T00:26:43;11.30;83.70
18717;DHT22;9487;50.892;6.906;2023-05-19T00:29:10;11.10;87.50
18717;DHT22;9487;50.892;6.906;2023-05-19T00:31:37;11.00;91.10
18717;DHT22;9487;50.892;6.906;2023-05-19T00:34:04;10.90;92.40
18717;DHT22;9487;50.892;6.906;2023-05-19T00:36:31;10.70;95.20
18717;DHT22;9487;50.892;6.906;2023-05-19T00:38:59;10.60;97.40
18717;DHT22;9487;50.892;6.906;2023-05-19T00:41:27;10.50;99.10
18717;DHT22;9487;50.892;6.906;2023-05-19T00:43:54;10.50;99.70
18717;DHT22;9487;50.892;6.906;2023-05-19T00:46:22;10.40;99.90
18717;DHT22;9487;50.892;6.906;2023-05-19T00:48:50;10.30;99.90
18717;DHT22;9487;50.892;6.906;2023-05-19T00:51:17;10.40;99.90
18717;DHT22;9487;50.892;6.906;2023-05-19T00:53:45;10.50;99.90
18717;DHT22;9487;50.892;6.906;2023-05-19T00:56:16;10.70;99.10
18717;DHT22;9487;50.892;6.906;2023-05-19T00:58:45;10.90;96.50
18717;DHT22;9487;50.892;6.906;2023-05-19T01:01:12;11.00;95.50
18717;DHT22;9487;50.892;6.906;2023-05-19T01:03:42;10.90;95.40
18717;DHT22;9487;50.892;6.906;2023-05-19T01:06:09;10.80;97.20
18717;DHT22;9487;50.892;6.906;2023-05-19T01:08:37;10.80;99.10
18717;DHT22;9487;50.892;6.906;2023-05-19T01:11:05;10.80;97.50
18717;DHT22;9487;50.892;6.906;2023-05-19T01:13:33;10.80;97.70
18717;DHT22;9487;50.892;6.906;2023-05-19T01:16:06;10.80;95.60
18717;DHT22;9487;50.892;6.906;2023-05-19T01:18:42;10.50;99.90
18717;DHT22;9487;50.892;6.906;2023-05-19T01:21:33;10.60;97.90
18717;DHT22;9487;50.892;6.906;2023-05-19T01:24:26;10.50;99.90
18717;DHT22;9487;50.892;6.906;2023-05-19T01:27:13;10.70;99.60
18717;DHT22;9487;50.892;6.906;2023-05-19T01:30:05;10.60;99.90
18717;DHT22;9487;50.892;6.906;2023-05-19T01:32:32;10.50;98.80
18717;DHT22;9487;50.892;6.906;2023-05-19T01:35:00;10.40;99.90
18717;DHT22;9487;50.892;6.906;2023-05-19T01:37:29;10.30;99.90
18717;DHT22;9487;50.892;6.906;2023-05-19T01:39:57;10.40;99.90
18717;DHT22;9487;50.892;6.906;2023-05-19T01:42:25;10.10;99.90
18717;DHT22;9487;50.892;6.906;2023-05-19T01:44:53;10.00;99.90
18717;DHT22;9487;50.892;6.906;2023-05-19T01:47:24;10.10;99.90
18717;DHT22;9487;50.892;6.906;2023-05-19T01:49:51;10.00;99.90
18717;DHT22;9487;50.892;6.906;2023-05-19T01:52:17;10.00;99.90
18717;DHT22;9487;50.892;6.906;2023-05-19T01:54:45;10.20;99.90
18717;DHT22;9487;50.892;6.906;2023-05-19T01:57:30;10.10;99.90
18717;DHT22;9487;50.892;6.906;2023-05-19T02:00:11;10.20;99.90
18717;DHT22;9487;50.892;6.906;2023-05-19T02:02:52;10.30;99.90
18717;DHT22;9487;50.892;6.906;2023-05-19T02:05:25;10.30;99.90
18717;DHT22;9487;50.892;6.906;2023-05-19T02:08:00;10.20;99.90
18717;DHT22;9487;50.892;6.906;2023-05-19T02:10:32;10.00;99.90
18717;DHT22;9487;50.892;6.906;2023-05-19T02:13:04;10.00;99.90
18717;DHT22;9487;50.892;6.906;2023-05-19T02:15:36;9.90;99.90
18717;DHT22;9487;50.892;6.906;2023-05-19T02:18:08;9.70;99.90
18717;DHT22;9487;50.892;6.906;2023-05-19T02:20:36;9.70;99.90
18717;DHT22;9487;50.892;6.906;2023-05-19T02:23:04;9.90;99.90
18717;DHT22;9487;50.892;6.906;2023-05-19T02:25:31;10.00;99.90
18717;DHT22;9487;50.892;6.906;2023-05-19T02:27:58;10.00;99.90
18717;DHT22;9487;50.892;6.906;2023-05-19T02:30:25;9.90;99.90
18717;DHT22;9487;50.892;6.906;2023-05-19T02:32:52;9.90;99.90
18717;DHT22;9487;50.892;6.906;2023-05-19T02:35:21;9.80;99.90
18717;DHT22;9487;50.892;6.906;2023-05-19T02:37:49;9.50;99.90
18717;DHT22;9487;50.892;6.906;2023-05-19T02:40:16;9.40;99.90
18717;DHT22;9487;50.892;6.906;2023-05-19T02:42:43;9.50;99.90
18717;DHT22;9487;50.892;6.906;2023-05-19T02:45:11;9.70;99.90
18717;DHT22;9487;50.892;6.906;2023-05-19T02:50:11;9.70;99.90
18717;DHT22;9487;50.892;6.906;2023-05-19T02:52:39;9.60;99.90
18717;DHT22;9487;50.892;6.906;2023-05-19T02:55:07;9.50;99.90
18717;DHT22;9487;50.892;6.906;2023-05-19T02:57:34;9.50;99.90
18717;DHT22;9487;50.892;6.906;2023-05-19T03:00:00;9.50;99.90
18717;DHT22;9487;50.892;6.906;2023-05-19T03:02:28;9.60;99.90
18717;DHT22;9487;50.892;6.906;2023-05-19T03:04:55;9.60;99.90
18717;DHT22;9487;50.892;6.906;2023-05-19T03:07:22;9.50;99.90
18717;DHT22;9487;50.892;6.906;2023-05-19T03:09:50;9.20;99.90
18717;DHT22;9487;50.892;6.906;2023-05-19T03:12:18;9.10;99.90
18717;DHT22;9487;50.892;6.906;2023-05-19T03:14:45;9.20;99.90
18717;DHT22;9487;50.892;6.906;2023-05-19T03:17:12;9.40;99.90
18717;DHT22;9487;50.892;6.906;2023-05-19T03:19:39;9.20;99.90
18717;DHT22;9487;50.892;6.906;2023-05-19T03:22:06;9.30;99.90
18717;DHT22;9487;50.892;6.906;2023-05-19T03:24:33;9.50;99.90
18717;DHT22;9487;50.892;6.906;2023-05-19T03:27:02;9.50;99.90
18717;DHT22;9487;50.892;6.906;2023-05-19T03:29:30;9.50;99.90
18717;DHT22;9487;50.892;6.906;2023-05-19T03:31:57;9.50;99.90
18717;DHT22;9487;50.892;6.906;2023-05-19T03:34:24;9.40;99.90
18717;DHT22;9487;50.892;6.906;2023-05-19T03:36:51;9.30;99.90
18717;DHT22;9487;50.892;6.906;2023-05-19T03:39:18;9.30;99.90
18717;DHT22;9487;50.892;6.906;2023-05-19T03:41:44;9.40;99.90
18717;DHT22;9487;50.892;6.906;2023-05-19T03:44:13;9.40;99.90
18717;DHT22;9487;50.892;6.906;2023-05-19T03:46:40;9.00;99.90
18717;DHT22;9487;50.892;6.906;2023-05-19T03:49:07;8.80;99.90
18717;DHT22;9487;50.892;6.906;2023-05-19T03:51:33;8.70;99.90
18717;DHT22;9487;50.892;6.906;2023-05-19T03:54:01;8.60;99.90
18717;DHT22;9487;50.892;6.906;2023-05-19T03:56:28;8.60;99.90
18717;DHT22;9487;50.892;6.906;2023-05-19T03:58:55;8.40;99.90
18717;DHT22;9487;50.892;6.906;2023-05-19T04:01:23;8.40;99.90
18717;DHT22;9487;50.892;6.906;2023-05-19T04:03:50;8.50;99.90
18717;DHT22;9487;50.892;6.906;2023-05-19T04:06:17;8.60;99.90
18717;DHT22;9487;50.892;6.906;2023-05-19T04:08:44;8.90;99.90
18717;DHT22;9487;50.892;6.906;2023-05-19T04:11:11;9.20;99.90
18717;DHT22;9487;50.892;6.906;2023-05-19T04:13:38;9.10;99.90
18717;DHT22;9487;50.892;6.906;2023-05-19T04:16:06;9.20;99.90
18717;DHT22;9487;50.892;6.906;2023-05-19T04:18:34;9.30;99.90
18717;DHT22;9487;50.892;6.906;2023-05-19T04:21:01;9.40;99.90
18717;DHT22;9487;50.892;6.906;2023-05-19T04:23:28;9.40;99.90
18717;DHT22;9487;50.892;6.906;2023-05-19T04:25:56;9.50;99.90
18717;DHT22;9487;50.892;6.906;2023-05-19T04:28:23;9.60;99.90
18717;DHT22;9487;50.892;6.906;2023-05-19T04:30:50;9.30;99.90
18717;DHT22;9487;50.892;6.906;2023-05-19T04:33:17;9.40;99.90
18717;DHT22;9487;50.892;6.906;2023-05-19T04:35:46;9.40;99.90
18717;DHT22;9487;50.892;6.906;2023-05-19T04:38:14;9.60;99.90
18717;DHT22;9487;50.892;6.906;2023-05-19T04:40:43;9.60;99.90
18717;DHT22;9487;50.892;6.906;2023-05-19T04:43:10;9.60;99.90
18717;DHT22;9487;50.892;6.906;2023-05-19T04:45:37;9.50;99.90
18717;DHT22;9487;50.892;6.906;2023-05-19T04:48:07;9.50;99.90
18717;DHT22;9487;50.892;6.906;2023-05-19T04:50:33;9.60;99.90
18717;DHT22;9487;50.892;6.906;2023-05-19T04:53:04;9.60;99.90
18717;DHT22;9487;50.892;6.906;2023-05-19T04:55:31;9.60;99.90
18717;DHT22;9487;50.892;6.906;2023-05-19T04:57:58;9.60;99.90
18717;DHT22;9487;50.892;6.906;2023-05-19T05:00:25;9.80;99.90
18717;DHT22;9487;50.892;6.906;2023-05-19T05:02:52;9.90;99.90
18717;DHT22;9487;50.892;6.906;2023-05-19T05:05:22;10.10;99.90
18717;DHT22;9487;50.892;6.906;2023-05-19T05:07:49;10.20;98.50
18717;DHT22;9487;50.892;6.906;2023-05-19T05:10:19;10.20;98.00
18717;DHT22;9487;50.892;6.906;2023-05-19T05:12:48;10.30;98.50
18717;DHT22;9487;50.892;6.906;2023-05-19T05:15:16;10.30;97.40
18717;DHT22;9487;50.892;6.906;2023-05-19T05:17:43;10.20;96.90
18717;DHT22;9487;50.892;6.906;2023-05-19T05:20:12;10.00;96.90
18717;DHT22;9487;50.892;6.906;2023-05-19T05:22:39;10.10;99.90
18717;DHT22;9487;50.892;6.906;2023-05-19T05:25:08;10.20;99.90
18717;DHT22;9487;50.892;6.906;2023-05-19T05:27:36;10.50;91.10
18717;DHT22;9487;50.892;6.906;2023-05-19T05:30:04;10.70;93.20
18717;DHT22;9487;50.892;6.906;2023-05-19T05:32:31;10.80;82.60
18717;DHT22;9487;50.892;6.906;2023-05-19T05:34:58;11.00;88.80
18717;DHT22;9487;50.892;6.906;2023-05-19T05:37:26;11.30;81.70
18717;DHT22;9487;50.892;6.906;2023-05-19T05:39:53;11.60;65.30
18717;DHT22;9487;50.892;6.906;2023-05-19T05:42:20;11.70;55.40
18717;DHT22;9487;50.892;6.906;2023-05-19T05:44:48;11.50;61.90
18717;DHT22;9487;50.892;6.906;2023-05-19T05:47:16;11.50;65.10
18717;DHT22;9487;50.892;6.906;2023-05-19T05:49:43;11.40;67.10
18717;DHT22;9487;50.892;6.906;2023-05-19T05:52:13;11.60;65.30
18717;DHT22;9487;50.892;6.906;2023-05-19T05:54:41;11.80;70.20
18717;DHT22;9487;50.892;6.906;2023-05-19T05:57:09;11.90;62.60
18717;DHT22;9487;50.892;6.906;2023-05-19T05:59:36;11.90;75.00
18717;DHT22;9487;50.892;6.906;2023-05-19T06:02:05;12.40;99.10
18717;DHT22;9487;50.892;6.906;2023-05-19T06:04:33;13.30;99.90
18717;DHT22;9487;50.892;6.906;2023-05-19T06:07:00;13.20;31.40
18717;DHT22;9487;50.892;6.906;2023-05-19T06:09:27;13.50;18.10
18717;DHT22;9487;50.892;6.906;2023-05-19T06:11:56;13.70;2.50
18717;DHT22;9487;50.892;6.906;2023-05-19T06:14:23;13.20;1.20
18717;DHT22;9487;50.892;6.906;2023-05-19T06:16:50;12.90;3.60
18717;DHT22;9487;50.892;6.906;2023-05-19T06:19:19;13.00;8.70
18717;DHT22;9487;50.892;6.906;2023-05-19T06:21:45;13.40;21.00
18717;DHT22;9487;50.892;6.906;2023-05-19T06:24:12;13.60;12.80
18717;DHT22;9487;50.892;6.906;2023-05-19T06:26:39;14.00;14.40
18717;DHT22;9487;50.892;6.906;2023-05-19T06:29:06;14.10;6.70
18717;DHT22;9487;50.892;6.906;2023-05-19T06:31:33;14.40;9.40
18717;DHT22;9487;50.892;6.906;2023-05-19T06:34:00;14.70;1.00
18717;DHT22;9487;50.892;6.906;2023-05-19T06:36:29;14.80;1.00
18717;DHT22;9487;50.892;6.906;2023-05-19T06:38:55;14.50;1.00
18717;DHT22;9487;50.892;6.906;2023-05-19T06:41:23;14.40;1.00
18717;DHT22;9487;50.892;6.906;2023-05-19T06:43:50;14.50;1.00
18717;DHT22;9487;50.892;6.906;2023-05-19T06:46:17;14.70;1.00
18717;DHT22;9487;50.892;6.906;2023-05-19T06:48:43;14.70;1.00
18717;DHT22;9487;50.892;6.906;2023-05-19T06:51:11;14.70;1.00
18717;DHT22;9487;50.892;6.906;2023-05-19T06:53:39;14.90;1.00
18717;DHT22;9487;50.892;6.906;2023-05-19T06:56:06;15.00;1.00
18717;DHT22;9487;50.892;6.906;2023-05-19T06:58:33;15.20;1.00
18717;DHT22;9487;50.892;6.906;2023-05-19T07:01:00;14.90;1.00
18717;DHT22;9487;50.892;6.906;2023-05-19T07:03:27;15.10;1.00
18717;DHT22;9487;50.892;6.906;2023-05-19T07:05:55;15.10;1.00
18717;DHT22;9487;50.892;6.906;2023-05-19T07:08:22;14.70;1.00
18717;DHT22;9487;50.892;6.906;2023-05-19T07:10:53;14.70;1.00
18717;DHT22;9487;50.892;6.906;2023-05-19T07:13:21;14.90;1.00
18717;DHT22;9487;50.892;6.906;2023-05-19T07:15:47;14.70;1.00
18717;DHT22;9487;50.892;6.906;2023-05-19T07:18:16;14.70;1.00
18717;DHT22;9487;50.892;6.906;2023-05-19T07:20:44;14.90;1.00
18717;DHT22;9487;50.892;6.906;2023-05-19T07:23:11;15.10;1.00
18717;DHT22;9487;50.892;6.906;2023-05-19T07:25:38;14.90;1.00
18717;DHT22;9487;50.892;6.906;2023-05-19T07:28:06;14.80;1.00
18717;DHT22;9487;50.892;6.906;2023-05-19T07:30:33;14.70;1.00
18717;DHT22;9487;50.892;6.906;2023-05-19T07:33:00;14.60;1.00
18717;DHT22;9487;50.892;6.906;2023-05-19T07:35:27;14.70;1.00
18717;DHT22;9487;50.892;6.906;2023-05-19T07:37:54;15.00;1.00
18717;DHT22;9487;50.892;6.906;2023-05-19T07:40:21;15.10;1.00
18717;DHT22;9487;50.892;6.906;2023-05-19T07:42:48;15.30;1.00
18717;DHT22;9487;50.892;6.906;2023-05-19T07:45:16;15.30;1.00
18717;DHT22;9487;50.892;6.906;2023-05-19T07:47:43;15.50;1.00
18717;DHT22;9487;50.892;6.906;2023-05-19T07:50:10;15.70;1.00
18717;DHT22;9487;50.892;6.906;2023-05-19T07:52:37;15.50;1.00
18717;DHT22;9487;50.892;6.906;2023-05-19T07:55:04;15.40;1.00
18717;DHT22;9487;50.892;6.906;2023-05-19T07:57:31;15.70;1.00
18717;DHT22;9487;50.892;6.906;2023-05-19T07:59:58;15.90;1.00
18717;DHT22;9487;50.892;6.906;2023-05-19T08:02:26;16.20;1.00
18717;DHT22;9487;50.892;6.906;2023-05-19T08:04:53;16.30;1.00
18717;DHT22;9487;50.892;6.906;2023-05-19T08:07:20;16.20;1.00
18717;DHT22;9487;50.892;6.906;2023-05-19T08:09:47;16.30;1.00
18717;DHT22;9487;50.892;6.906;2023-05-19T08:12:14;16.30;1.00
18717;DHT22;9487;50.892;6.906;2023-05-19T08:14:41;16.60;1.00
18717;DHT22;9487;50.892;6.906;2023-05-19T08:17:08;16.70;1.00
18717;DHT22;9487;50.892;6.906;2023-05-19T08:19:36;16.90;1.00
18717;DHT22;9487;50.892;6.906;2023-05-19T08:22:03;16.90;1.00
18717;DHT22;9487;50.892;6.906;2023-05-19T08:24:30;16.80;1.00
18717;DHT22;9487;50.892;6.906;2023-05-19T08:26:58;16.90;1.00
18717;DHT22;9487;50.892;6.906;2023-05-19T08:29:25;16.60;1.00
18717;DHT22;9487;50.892;6.906;2023-05-19T08:31:52;16.80;1.00
18717;DHT22;9487;50.892;6.906;2023-05-19T08:34:19;16.30;1.00
18717;DHT22;9487;50.892;6.906;2023-05-19T08:36:48;16.10;1.00
18717;DHT22;9487;50.892;6.906;2023-05-19T08:39:15;16.40;1.00
18717;DHT22;9487;50.892;6.906;2023-05-19T08:41:44;16.70;1.00
18717;DHT22;9487;50.892;6.906;2023-05-19T08:44:11;16.40;1.00
18717;DHT22;9487;50.892;6.906;2023-05-19T08:46:38;16.60;1.00
18717;DHT22;9487;50.892;6.906;2023-05-19T08:49:12;16.70;1.00
18717;DHT22;9487;50.892;6.906;2023-05-19T08:51:46;17.00;1.00
18717;DHT22;9487;50.892;6.906;2023-05-19T08:54:16;17.30;1.00
18717;DHT22;9487;50.892;6.906;2023-05-19T08:56:45;17.40;1.00
18717;DHT22;9487;50.892;6.906;2023-05-19T08:59:13;16.80;1.00
18717;DHT22;9487;50.892;6.906;2023-05-19T09:01:41;16.40;1.00
18717;DHT22;9487;50.892;6.906;2023-05-19T09:04:10;16.20;1.00
18717;DHT22;9487;50.892;6.906;2023-05-19T09:06:37;16.40;1.00
18717;DHT22;9487;50.892;6.906;2023-05-19T09:09:06;16.30;1.00
18717;DHT22;9487;50.892;6.906;2023-05-19T09:11:35;16.30;1.00
18717;DHT22;9487;50.892;6.906;2023-05-19T09:14:02;16.60;1.00
18717;DHT22;9487;50.892;6.906;2023-05-19T09:16:30;16.80;1.00
18717;DHT22;9487;50.892;6.906;2023-05-19T09:18:57;17.00;1.00
18717;DHT22;9487;50.892;6.906;2023-05-19T09:21:29;17.20;1.00
18717;DHT22;9487;50.892;6.906;2023-05-19T09:23:57;17.20;1.00
18717;DHT22;9487;50.892;6.906;2023-05-19T09:26:24;17.50;1.00
18717;DHT22;9487;50.892;6.906;2023-05-19T09:29:09;17.70;1.00
18717;DHT22;9487;50.892;6.906;2023-05-19T09:31:36;17.70;1.00
18717;DHT22;9487;50.892;6.906;2023-05-19T09:34:04;18.00;1.00
18717;DHT22;9487;50.892;6.906;2023-05-19T09:36:38;17.90;99.90
18717;DHT22;9487;50.892;6.906;2023-05-19T09:39:12;18.30;99.90
18717;DHT22;9487;50.892;6.906;2023-05-19T09:41:39;18.40;28.60
18717;DHT22;9487;50.892;6.906;2023-05-19T09:44:11;18.60;99.90
18717;DHT22;9487;50.892;6.906;2023-05-19T09:46:46;18.80;99.90
18717;DHT22;9487;50.892;6.906;2023-05-19T09:49:18;18.90;99.90
18717;DHT22;9487;50.892;6.906;2023-05-19T09:51:47;18.80;99.90
18717;DHT22;9487;50.892;6.906;2023-05-19T09:54:14;19.00;99.90
18717;DHT22;9487;50.892;6.906;2023-05-19T09:56:42;19.20;99.90
18717;DHT22;9487;50.892;6.906;2023-05-19T09:59:11;19.30;1.00
18717;DHT22;9487;50.892;6.906;2023-05-19T10:01:40;19.50;1.00
18717;DHT22;9487;50.892;6.906;2023-05-19T10:04:11;19.60;1.00
18717;DHT22;9487;50.892;6.906;2023-05-19T10:06:39;19.40;1.00
18717;DHT22;9487;50.892;6.906;2023-05-19T10:09:06;19.40;1.00
18717;DHT22;9487;50.892;6.906;2023-05-19T10:11:33;19.60;1.00
18717;DHT22;9487;50.892;6.906;2023-05-19T10:14:00;19.50;1.00
18717;DHT22;9487;50.892;6.906;2023-05-19T10:16:29;19.80;99.90
18717;DHT22;9487;50.892;6.906;2023-05-19T10:18:58;19.70;1.00
18717;DHT22;9487;50.892;6.906;2023-05-19T10:21:26;19.90;1.00
18717;DHT22;9487;50.892;6.906;2023-05-19T10:23:53;20.00;1.00
18717;DHT22;9487;50.892;6.906;2023-05-19T10:26:21;19.40;99.90
18717;DHT22;9487;50.892;6.906;2023-05-19T10:28:49;18.30;99.90
18717;DHT22;9487;50.892;6.906;2023-05-19T10:31:18;18.20;1.00
18717;DHT22;9487;50.892;6.906;2023-05-19T10:34:00;17.90;1.00
18717;DHT22;9487;50.892;6.906;2023-05-19T10:36:43;17.90;1.00
18717;DHT22;9487;50.892;6.906;2023-05-19T10:39:16;18.20;5.60
18717;DHT22;9487;50.892;6.906;2023-05-19T10:41:52;18.10;1.00
18717;DHT22;9487;50.892;6.906;2023-05-19T10:44:33;17.90;1.00
18717;DHT22;9487;50.892;6.906;2023-05-19T10:47:00;17.50;1.00
18717;DHT22;9487;50.892;6.906;2023-05-19T10:49:33;17.60;1.00
18717;DHT22;9487;50.892;6.906;2023-05-19T10:52:01;17.50;1.00
18717;DHT22;9487;50.892;6.906;2023-05-19T10:54:41;18.00;97.20
18717;DHT22;9487;50.892;6.906;2023-05-19T10:57:13;18.50;99.90
18717;DHT22;9487;50.892;6.906;2023-05-19T10:59:40;18.80;1.00
18717;DHT22;9487;50.892;6.906;2023-05-19T11:02:09;19.10;1.00
18717;DHT22;9487;50.892;6.906;2023-05-19T11:04:46;19.20;1.00
18717;DHT22;9487;50.892;6.906;2023-05-19T11:07:16;19.30;1.00
18717;DHT22;9487;50.892;6.906;2023-05-19T11:09:48;19.60;1.00
18717;DHT22;9487;50.892;6.906;2023-05-19T11:12:19;19.80;1.00
18717;DHT22;9487;50.892;6.906;2023-05-19T11:14:47;20.00;1.00
18717;DHT22;9487;50.892;6.906;2023-05-19T11:17:14;19.80;1.00
18717;DHT22;9487;50.892;6.906;2023-05-19T11:19:53;19.10;1.00
18717;DHT22;9487;50.892;6.906;2023-05-19T11:22:23;19.10;1.00
18717;DHT22;9487;50.892;6.906;2023-05-19T11:24:52;18.80;1.00
18717;DHT22;9487;50.892;6.906;2023-05-19T11:27:23;18.60;1.00
18717;DHT22;9487;50.892;6.906;2023-05-19T11:29:50;18.80;1.00
18717;DHT22;9487;50.892;6.906;2023-05-19T11:32:19;19.00;1.00
18717;DHT22;9487;50.892;6.906;2023-05-19T11:34:47;19.30;1.00
18717;DHT22;9487;50.892;6.906;2023-05-19T11:37:16;19.00;1.00
18717;DHT22;9487;50.892;6.906;2023-05-19T11:39:44;18.90;1.00
18717;DHT22;9487;50.892;6.906;2023-05-19T11:42:12;19.10;1.00
18717;DHT22;9487;50.892;6.906;2023-05-19T11:44:39;19.40;1.00
18717;DHT22;9487;50.892;6.906;2023-05-19T11:47:07;19.60;1.00
18717;DHT22;9487;50.892;6.906;2023-05-19T11:49:35;19.20;1.00
18717;DHT22;9487;50.892;6.906;2023-05-19T11:52:03;19.60;1.00
18717;DHT22;9487;50.892;6.906;2023-05-19T11:54:32;19.90;1.00
18717;DHT22;9487;50.892;6.906;2023-05-19T11:57:01;20.30;1.00
18717;DHT22;9487;50.892;6.906;2023-05-19T11:59:29;20.30;1.10
18717;DHT22;9487;50.892;6.906;2023-05-19T12:02:00;20.50;1.00
18717;DHT22;9487;50.892;6.906;2023-05-19T12:04:28;20.70;2.00
18717;DHT22;9487;50.892;6.906;2023-05-19T12:06:55;20.80;1.00
18717;DHT22;9487;50.892;6.906;2023-05-19T12:09:22;20.80;1.00
18717;DHT22;9487;50.892;6.906;2023-05-19T12:11:51;20.80;18.50
18717;DHT22;9487;50.892;6.906;2023-05-19T12:14:18;20.90;17.10
18717;DHT22;9487;50.892;6.906;2023-05-19T12:16:46;21.00;20.40
18717;DHT22;9487;50.892;6.906;2023-05-19T12:19:12;21.00;20.60
18717;DHT22;9487;50.892;6.906;2023-05-19T12:21:40;21.00;19.60
18717;DHT22;9487;50.892;6.906;2023-05-19T12:24:07;21.10;27.70
18717;DHT22;9487;50.892;6.906;2023-05-19T12:26:35;21.40;25.10
18717;DHT22;9487;50.892;6.906;2023-05-19T12:29:05;21.50;26.30
18717;DHT22;9487;50.892;6.906;2023-05-19T12:31:33;21.50;6.80
18717;DHT22;9487;50.892;6.906;2023-05-19T12:34:00;21.40;10.80
18717;DHT22;9487;50.892;6.906;2023-05-19T12:36:27;20.80;15.50
18717;DHT22;9487;50.892;6.906;2023-05-19T12:38:56;20.90;34.20
18717;DHT22;9487;50.892;6.906;2023-05-19T12:41:23;20.60;35.10
18717;DHT22;9487;50.892;6.906;2023-05-19T12:43:52;20.00;34.80
18717;DHT22;9487;50.892;6.906;2023-05-19T12:46:20;20.10;36.80
18717;DHT22;9487;50.892;6.906;2023-05-19T12:48:47;20.20;33.00
18717;DHT22;9487;50.892;6.906;2023-05-19T12:51:17;20.10;34.40
18717;DHT22;9487;50.892;6.906;2023-05-19T12:53:44;20.40;34.80
18717;DHT22;9487;50.892;6.906;2023-05-19T12:56:12;20.60;33.40
18717;DHT22;9487;50.892;6.906;2023-05-19T12:58:40;20.20;35.60
18717;DHT22;9487;50.892;6.906;2023-05-19T13:01:13;20.10;36.20
18717;DHT22;9487;50.892;6.906;2023-05-19T13:03:42;20.10;34.20
18717;DHT22;9487;50.892;6.906;2023-05-19T13:06:10;20.10;30.80
18717;DHT22;9487;50.892;6.906;2023-05-19T13:08:39;19.80;31.00
18717;DHT22;9487;50.892;6.906;2023-05-19T13:11:06;19.70;31.40
18717;DHT22;9487;50.892;6.906;2023-05-19T13:13:33;19.80;33.60
18717;DHT22;9487;50.892;6.906;2023-05-19T13:16:00;19.90;30.00
18717;DHT22;9487;50.892;6.906;2023-05-19T13:18:27;20.10;27.40
18717;DHT22;9487;50.892;6.906;2023-05-19T13:20:58;20.40;26.90
18717;DHT22;9487;50.892;6.906;2023-05-19T13:23:24;20.20;24.80
18717;DHT22;9487;50.892;6.906;2023-05-19T13:25:51;20.20;25.50
18717;DHT22;9487;50.892;6.906;2023-05-19T13:28:19;20.30;28.90
18717;DHT22;9487;50.892;6.906;2023-05-19T13:30:46;20.50;29.60
18717;DHT22;9487;50.892;6.906;2023-05-19T13:33:14;20.90;28.20
18717;DHT22;9487;50.892;6.906;2023-05-19T13:35:41;20.80;15.80
18717;DHT22;9487;50.892;6.906;2023-05-19T13:38:09;20.60;18.30
18717;DHT22;9487;50.892;6.906;2023-05-19T13:40:36;20.80;7.30
18717;DHT22;9487;50.892;6.906;2023-05-19T13:43:04;20.40;7.60
18717;DHT22;9487;50.892;6.906;2023-05-19T13:45:32;20.20;7.80
18717;DHT22;9487;50.892;6.906;2023-05-19T13:47:59;20.20;7.20
18717;DHT22;9487;50.892;6.906;2023-05-19T13:50:26;20.20;7.90
18717;DHT22;9487;50.892;6.906;2023-05-19T13:52:52;20.40;8.30
18717;DHT22;9487;50.892;6.906;2023-05-19T13:55:21;20.60;1.00
18717;DHT22;9487;50.892;6.906;2023-05-19T13:57:48;20.70;11.70
18717;DHT22;9487;50.892;6.906;2023-05-19T14:00:16;20.60;11.00
18717;DHT22;9487;50.892;6.906;2023-05-19T14:02:43;20.80;10.50
18717;DHT22;9487;50.892;6.906;2023-05-19T14:05:10;21.20;11.50
18717;DHT22;9487;50.892;6.906;2023-05-19T14:07:37;21.40;10.50
18717;DHT22;9487;50.892;6.906;2023-05-19T14:10:05;21.30;10.80
18717;DHT22;9487;50.892;6.906;2023-05-19T14:12:34;21.70;11.60
18717;DHT22;9487;50.892;6.906;2023-05-19T14:15:01;21.40;11.60
18717;DHT22;9487;50.892;6.906;2023-05-19T14:17:28;21.50;3.40
18717;DHT22;9487;50.892;6.906;2023-05-19T14:19:55;21.40;1.90
18717;DHT22;9487;50.892;6.906;2023-05-19T14:22:22;21.10;1.00
18717;DHT22;9487;50.892;6.906;2023-05-19T14:24:49;21.00;1.00
18717;DHT22;9487;50.892;6.906;2023-05-19T14:27:16;20.80;1.00
18717;DHT22;9487;50.892;6.906;2023-05-19T14:29:44;20.90;1.00
18717;DHT22;9487;50.892;6.906;2023-05-19T14:32:13;21.00;1.00
18717;DHT22;9487;50.892;6.906;2023-05-19T14:34:40;21.00;1.00
18717;DHT22;9487;50.892;6.906;2023-05-19T14:37:07;21.00;1.00
18717;DHT22;9487;50.892;6.906;2023-05-19T14:39:34;21.20;1.00
18717;DHT22;9487;50.892;6.906;2023-05-19T14:42:01;21.40;1.00
18717;DHT22;9487;50.892;6.906;2023-05-19T14:44:31;21.00;1.00
18717;DHT22;9487;50.892;6.906;2023-05-19T14:47:01;20.90;1.00
18717;DHT22;9487;50.892;6.906;2023-05-19T14:49:28;21.20;1.00
18717;DHT22;9487;50.892;6.906;2023-05-19T14:51:55;21.50;1.00
18717;DHT22;9487;50.892;6.906;2023-05-19T14:54:22;21.60;1.00
18717;DHT22;9487;50.892;6.906;2023-05-19T14:56:49;21.60;1.00
18717;DHT22;9487;50.892;6.906;2023-05-19T14:59:16;21.40;1.00
18717;DHT22;9487;50.892;6.906;2023-05-19T15:01:43;21.20;1.00
18717;DHT22;9487;50.892;6.906;2023-05-19T15:04:11;21.10;1.00
18717;DHT22;9487;50.892;6.906;2023-05-19T15:06:38;20.90;1.00
18717;DHT22;9487;50.892;6.906;2023-05-19T15:09:05;20.70;1.00
18717;DHT22;9487;50.892;6.906;2023-05-19T15:11:32;21.00;1.00
18717;DHT22;9487;50.892;6.906;2023-05-19T15:13:59;21.10;1.00
18717;DHT22;9487;50.892;6.906;2023-05-19T15:16:26;21.30;1.00
18717;DHT22;9487;50.892;6.906;2023-05-19T15:18:53;21.50;1.00
18717;DHT22;9487;50.892;6.906;2023-05-19T15:21:22;21.80;1.00
18717;DHT22;9487;50.892;6.906;2023-05-19T15:23:49;21.70;1.00
18717;DHT22;9487;50.892;6.906;2023-05-19T15:26:16;21.90;1.00
18717;DHT22;9487;50.892;6.906;2023-05-19T15:28:43;22.00;1.00
18717;DHT22;9487;50.892;6.906;2023-05-19T15:31:10;22.00;1.00
18717;DHT22;9487;50.892;6.906;2023-05-19T15:33:37;22.00;1.00
18717;DHT22;9487;50.892;6.906;2023-05-19T15:36:04;22.00;1.00
18717;DHT22;9487;50.892;6.906;2023-05-19T15:38:34;21.90;1.00
18717;DHT22;9487;50.892;6.906;2023-05-19T15:41:05;21.80;1.00
18717;DHT22;9487;50.892;6.906;2023-05-19T15:43:32;21.60;1.00
18717;DHT22;9487;50.892;6.906;2023-05-19T15:45:59;21.50;1.00
18717;DHT22;9487;50.892;6.906;2023-05-19T15:48:26;21.40;1.00
18717;DHT22;9487;50.892;6.906;2023-05-19T15:50:54;21.50;1.00
18717;DHT22;9487;50.892;6.906;2023-05-19T15:53:22;21.10;1.00
18717;DHT22;9487;50.892;6.906;2023-05-19T15:55:51;21.00;1.00
18717;DHT22;9487;50.892;6.906;2023-05-19T15:58:18;20.90;1.00
18717;DHT22;9487;50.892;6.906;2023-05-19T16:00:45;21.00;1.00
18717;DHT22;9487;50.892;6.906;2023-05-19T16:03:12;21.00;1.00
18717;DHT22;9487;50.892;6.906;2023-05-19T16:05:39;20.80;1.00